Departure
Syros Airport
Syros Island, GR
cloud Weather
- Wind
- 350° / 18G28 kt
- Visibility
- 6 SM
- Ceiling
- CAVOK
- Temp / Dew
- 27°C / 17°C
- Altimeter
- 29.97 inHg
Obs: 2026-09-05T08:50:00.000Z
Raw METAR
METAR LGSO 050850Z 35018G28KT CAVOK 27/17 Q1015
local_airport Airport
JSY · LGSO · Syros Island, GR
Departure
Syros Island, GR
Obs: 2026-09-05T08:50:00.000Z
METAR LGSO 050850Z 35018G28KT CAVOK 27/17 Q1015
| Date | Flight | Aircraft | Route | Takeoff | Landing | Duration | Dep Δ |
|---|---|---|---|---|---|---|---|
| 2026-07-26 | AEE579 | 46BC50 | JSY → SKG | Jul 26, 09:20 UTC | Jul 26, 10:25 UTC | 1h 5m | - |
| 2026-07-26 | SEH021 | 46D2EF | JSY → ATH | Jul 26, 08:20 UTC | Jul 26, 08:45 UTC | 25m | - |
| 2026-07-25 | AEE579 | 46BC50 | JSY → SKG | Jul 25, 13:05 UTC | Jul 25, 14:10 UTC | 1h 5m | - |
| 2026-07-25 | HAF701 | 4682BD | - | Jul 25, 00:05 UTC | Jul 25, 00:25 UTC | 20m | - |
| 2026-07-24 | SEH021 | 46CD38 | JSY → ATH | Jul 24, 08:20 UTC | Jul 24, 08:45 UTC | 25m | - |
| 2026-07-24 | AEE189 | 46BC4F | JSY → HER | Jul 24, 05:00 UTC | Jul 24, 05:30 UTC | 30m | - |
| 2026-07-23 | AEE579 | 46BC54 | JSY → SKG | Jul 23, 13:00 UTC | Jul 23, 14:00 UTC | 1h 0m | - |
| 2026-07-23 | SEH021 | 46D2EF | JSY → ATH | Jul 23, 08:30 UTC | Jul 23, 08:50 UTC | 20m | - |
| 2026-07-21 | AEE579 | 46BC4D | JSY → SKG | Jul 21, 12:55 UTC | Jul 21, 13:55 UTC | 1h 0m | - |
| 2026-07-21 | SEH021 | 46CD38 | JSY → ATH | Jul 21, 08:35 UTC | Jul 21, 09:00 UTC | 25m | - |
| 2026-07-20 | AEE189 | 46BC4A | JSY → HER | Jul 20, 16:05 UTC | Jul 20, 16:35 UTC | 30m | - |
| 2026-07-20 | SEH021 | 46CD38 | JSY → ATH | Jul 20, 08:30 UTC | Jul 20, 08:55 UTC | 25m | - |
| 2026-07-19 | AEE579 | 46BC4D | JSY → SKG | Jul 19, 09:10 UTC | Jul 19, 10:10 UTC | 1h 0m | - |
| 2026-07-19 | SEH021 | 46CD38 | JSY → ATH | Jul 19, 08:15 UTC | Jul 19, 08:35 UTC | 20m | - |
| 2026-07-18 | HAF701 | 4682BD | - | Jul 18, 08:50 UTC | Jul 18, 10:05 UTC | 1h 15m | - |
| 2026-07-17 | SEH021 | 46A60F | JSY → ATH | Jul 17, 08:45 UTC | Jul 17, 09:04 UTC | 20m | - |
| 2026-07-14 | - | 4682C0 | - | Jul 14, 15:30 UTC | Jul 14, 16:40 UTC | 1h 10m | - |
| 2026-07-13 | SEH021 | 46D0AE | JSY → ATH | Jul 13, 08:25 UTC | Jul 13, 08:50 UTC | 25m | - |
| 2026-07-12 | - | 4682C0 | - | Jul 12, 22:20 UTC | Jul 12, 22:40 UTC | 20m | - |
| 2026-07-09 | VJT813 | 4D20D5 | JSY → FAB | Jul 9, 16:05 UTC | Jul 9, 19:25 UTC | 3h 20m | - |
| 2026-07-06 | SEH020 | 46D0AE | JSY → ATH | Jul 6, 08:20 UTC | Jul 6, 08:45 UTC | 25m | - |
| 2026-07-05 | SEH021 | 46CD38 | JSY → ATH | Jul 5, 08:15 UTC | Jul 5, 08:40 UTC | 25m | - |
| 2026-07-02 | HAF701 | 4682BD | - | Jul 2, 20:30 UTC | Jul 2, 21:20 UTC | 50m | - |
| 2026-06-21 | SEH021 | 46D2EF | JSY → ATH | Jun 21, 08:25 UTC | Jun 21, 08:49 UTC | 25m | - |
| 2026-06-20 | AEE579 | 46BC4C | JSY → SKG | Jun 20, 12:50 UTC | Jun 20, 13:44 UTC | 55m | - |
| Date | Flight | Aircraft | Route | Takeoff | Landing | Duration | Arr Δ |
|---|---|---|---|---|---|---|---|
| 2026-07-26 | SEH020 | 46D2EF | ATH → JSY | Jul 26, 07:25 UTC | Jul 26, 07:40 UTC | 15m | - |
| 2026-07-26 | AEE578 | 46BC50 | SKG → JSY | Jul 26, 07:20 UTC | Jul 26, 08:15 UTC | 55m | - |
| 2026-07-26 | HAF704 | 4682C0 | - | Jul 26, 06:30 UTC | Jul 26, 07:10 UTC | 41m | - |
| 2026-07-25 | AEE578 | 46BC50 | SKG → JSY | Jul 25, 11:30 UTC | Jul 25, 12:25 UTC | 55m | - |
| 2026-07-25 | - | 4682C0 | - | Jul 25, 02:50 UTC | Jul 25, 03:30 UTC | 40m | - |
| 2026-07-24 | HAF701 | 4682BD | - | Jul 24, 22:10 UTC | Jul 24, 22:20 UTC | 10m | - |
| 2026-07-24 | SEH020 | 46CD38 | ATH → JSY | Jul 24, 07:20 UTC | Jul 24, 07:40 UTC | 20m | - |
| 2026-07-24 | AEE188 | 46BC4F | HER → JSY | Jul 24, 03:40 UTC | Jul 24, 04:10 UTC | 30m | - |
| 2026-07-23 | HAF701 | 4682BD | - | Jul 23, 18:35 UTC | Jul 23, 19:20 UTC | 45m | - |
| 2026-07-23 | AEE578 | 46BC54 | SKG → JSY | Jul 23, 11:30 UTC | Jul 23, 12:25 UTC | 55m | - |
| 2026-07-23 | LZPYH | 45207D | - | Jul 23, 09:25 UTC | Jul 23, 11:10 UTC | 1h 45m | - |
| 2026-07-23 | SEH020 | 46D2EF | ATH → JSY | Jul 23, 07:25 UTC | Jul 23, 07:45 UTC | 20m | - |
| 2026-07-22 | SXHLS | 46A193 | - | Jul 22, 13:55 UTC | Jul 22, 14:05 UTC | 10m | - |
| 2026-07-21 | HAF701 | 4682BD | - | Jul 21, 21:30 UTC | Jul 21, 22:20 UTC | 50m | - |
| 2026-07-21 | AEE578 | 46BC4D | SKG → JSY | Jul 21, 11:15 UTC | Jul 21, 12:15 UTC | 1h 0m | - |
| 2026-07-21 | LNTBM | 479807 | - | Jul 21, 09:25 UTC | Jul 21, 09:50 UTC | 25m | - |
| 2026-07-21 | SEH020 | 46CD38 | ATH → JSY | Jul 21, 07:40 UTC | Jul 21, 08:00 UTC | 20m | - |
| 2026-07-21 | HAF701 | 4682BD | - | Jul 21, 06:15 UTC | Jul 21, 06:55 UTC | 40m | - |
| 2026-07-20 | HAF701 | 4682BD | - | Jul 20, 21:40 UTC | Jul 20, 22:30 UTC | 50m | - |
| 2026-07-20 | HAF701 | 4682BD | - | Jul 20, 17:05 UTC | Jul 20, 17:15 UTC | 10m | - |
| 2026-07-20 | AEE188 | 46BC4A | HER → JSY | Jul 20, 15:05 UTC | Jul 20, 15:25 UTC | 20m | - |
| 2026-07-20 | SEH020 | 46CD38 | ATH → JSY | Jul 20, 07:35 UTC | Jul 20, 07:55 UTC | 20m | - |
| 2026-07-19 | SXHRM | 46A24D | - | Jul 19, 09:00 UTC | Jul 19, 09:55 UTC | 55m | - |
| 2026-07-19 | SEH020 | 46CD38 | ATH → JSY | Jul 19, 07:20 UTC | Jul 19, 07:40 UTC | 20m | - |
| 2026-07-19 | AEE578 | 46BC4D | SKG → JSY | Jul 19, 07:20 UTC | Jul 19, 08:20 UTC | 1h 0m | - |